Hauptseite
METAR-TAF:

METAR-TAF

Flughäfen :

Bohrplattform

Ekofisk, Norwegen

Breite: 56-33N, Länge: 003-15E, Höhe: 3 m

Beobachtung

Neuester Wetterbericht von vor 25 Minuten, um 09:50 UTC
Wind 15 kt aus Süd/Südost
Temperatur 10°C
Luftfeuchtigkeit 100%
Luftdruck 1027 hPa
Sichtweite: 2500 m
Geschlossene Wolkendecke in der Höhe von 500 ft
feuchter Dunst

METAR: ENLE 160950Z 15015KT 2500 BR OVC005 10/10 Q1027 W10/S3

Zeit: 11:15 (10:15 UTC)

Prognose

Neuester Wetterbericht von vor 2 Stunden und 15 Minuten, um 08:00 UTC
Gültige Prognose vom 16 um 09 UTC bis 16 um 18 UTC
Wind 15 kt aus Süd/Südost
Sichtweite: 8000 m
Aufgelockert bewölkt in der Höhe von 400 ft
Durchbrochene Bewölkung in der Höhe von 800 ft
Wahrscheinlichkeit 30%
vom 16 um 09 UTC bis 16 um 15 UTC
Sichtweite: 0500 m
in der Höhe von 200 ft
Nebel

TAF: ENLE 160800Z 1609/1618 16015KT 8000 SCT004 BKN008 PROB30 1609/1615 0500 FG VV002

Wetterbeobachtungen und Prognosen von mehr als 4000 Flughäfen (METAR und TAF Bericht).

Die verfügbaren Stationen werden durch gelbe und rote Markierungen auf der Karte dargestellt.

Führen Sie die Maus auf sie, um den Namen der Station zu sehen.

Darauf klicken, um die Beobachtung von Wetterbeobachtungen und Prognosen zu sehen.

Um die Karte zu ändern : klicken Sie auf den grünen Tasten mit einem schwarzen Kreuz Zum Vergrößern, auf den grünen Button mit einem Gedankenstrich zu verkleinern, oder auf die grünen Pfeile für benachbarte Karten.


METAR-TAF: